Time;durP1;ratioP1;P1;durP2;ratioP2;P2;SDS_P1;SDS_P2;PMS_P1;PMS_P2;Temp;Humidity;BMP_temperature;BMP_pressure;BME280_temperature;BME280_humidity;BME280_pressure;Samples;Min_cycle;Max_cycle;Signal;HPM_P1;HPM_P2
2023/12/05 00:00:06;;;;;;;63.10;38.10;;;;;;;-4.67;100.00;98878.14;109527;1251;65043;-73
2023/12/05 00:02:53;;;;;;;64.20;39.30;;;;;;;-4.66;100.00;98873.10;109497;1251;59018;-73
2023/12/05 00:05:20;;;;;;;66.00;40.30;;;;;;;-4.65;100.00;98865.99;108557;1251;1002975;-74
2023/12/05 00:07:46;;;;;;;65.30;40.70;;;;;;;-4.64;100.00;98862.69;107986;1251;1002499;-74
2023/12/05 00:10:13;;;;;;;66.80;39.50;;;;;;;-4.63;100.00;98862.68;108818;1251;1002499;-73
2023/12/05 00:12:39;;;;;;;68.40;40.80;;;;;;;-4.62;100.00;98864.92;108793;1251;1002280;-73
2023/12/05 00:15:06;;;;;;;65.50;40.60;;;;;;;-4.62;100.00;98863.89;108772;1250;1003048;-73
2023/12/05 00:17:33;;;;;;;64.80;40.70;;;;;;;-4.62;100.00;98865.45;109330;1251;59356;-72
2023/12/05 00:20:00;;;;;;;59.00;37.30;;;;;;;-4.62;100.00;98864.08;109588;1251;67013;-73
2023/12/05 00:22:27;;;;;;;66.40;40.60;;;;;;;-4.62;100.00;98860.06;109509;1251;60143;-73
2023/12/05 00:24:54;;;;;;;64.40;40.30;;;;;;;-4.61;100.00;98861.27;108769;1251;1003061;-74
2023/12/05 00:27:20;;;;;;;67.20;41.90;;;;;;;-4.60;100.00;98861.80;109582;1251;59051;-73
2023/12/05 00:29:47;;;;;;;67.60;41.30;;;;;;;-4.59;100.00;98859.70;109544;1251;59059;-73
2023/12/05 00:32:14;;;;;;;63.90;40.90;;;;;;;-4.59;100.00;98857.63;109547;1250;65939;-73
2023/12/05 00:34:45;;;;;;;71.70;42.60;;;;;;;-4.57;100.00;98852.77;109586;1251;61361;-73
2023/12/05 00:37:12;;;;;;;66.60;39.70;;;;;;;-4.57;100.00;98847.56;108362;1251;1002600;-73
2023/12/05 00:39:39;;;;;;;67.50;42.60;;;;;;;-4.57;100.00;98847.05;109311;1251;59026;-74
2023/12/05 00:42:07;;;;;;;63.50;41.40;;;;;;;-4.56;100.00;98844.25;109333;1256;59040;-74
2023/12/05 00:44:34;;;;;;;66.00;38.90;;;;;;;-4.56;100.00;98837.32;109574;1251;66994;-74
2023/12/05 00:47:03;;;;;;;63.70;40.50;;;;;;;-4.56;100.00;98834.89;108779;1251;1002861;-74
2023/12/05 00:49:29;;;;;;;66.00;40.20;;;;;;;-4.54;100.00;98844.92;109569;1251;63965;-74
2023/12/05 00:51:56;;;;;;;63.00;39.50;;;;;;;-4.53;100.00;98838.51;109494;1251;59342;-74
2023/12/05 00:54:23;;;;;;;65.30;38.30;;;;;;;-4.52;100.00;98836.95;109551;1251;58954;-74
2023/12/05 00:56:49;;;;;;;63.60;38.10;;;;;;;-4.52;100.00;98836.92;109567;1251;67386;-73
2023/12/05 00:59:17;;;;;;;64.90;39.90;;;;;;;-4.52;100.00;98837.46;109534;1255;60097;-74
2023/12/05 01:01:43;;;;;;;62.90;38.60;;;;;;;-4.53;100.00;98842.33;108763;1251;1002271;-74
2023/12/05 01:04:10;;;;;;;67.50;38.60;;;;;;;-4.53;100.00;98846.30;108739;1251;1002592;-73
2023/12/05 01:06:36;;;;;;;68.90;41.30;;;;;;;-4.53;100.00;98845.09;109567;1251;59034;-74
2023/12/05 01:09:06;;;;;;;67.60;42.00;;;;;;;-4.54;100.00;98842.85;109545;1250;59013;-74
2023/12/05 01:11:32;;;;;;;64.40;40.50;;;;;;;-4.54;100.00;98844.06;109562;1251;60197;-74
2023/12/05 01:13:59;;;;;;;62.70;38.60;;;;;;;-4.54;100.00;98843.20;109530;1251;64188;-74
2023/12/05 01:16:25;;;;;;;66.50;39.90;;;;;;;-4.55;100.00;98844.25;109573;1250;59028;-74
2023/12/05 01:18:52;;;;;;;63.40;39.70;;;;;;;-4.56;100.00;98835.58;109572;1251;58905;-74
2023/12/05 01:21:19;;;;;;;65.00;39.60;;;;;;;-4.57;100.00;98833.17;109312;1251;66260;-73
2023/12/05 01:23:45;;;;;;;63.10;39.40;;;;;;;-4.57;100.00;98832.99;108768;1251;1002551;-74
2023/12/05 01:26:12;;;;;;;66.50;41.10;;;;;;;-4.56;100.00;98831.77;109583;1251;65073;-74
2023/12/05 01:28:38;;;;;;;64.50;39.80;;;;;;;-4.56;100.00;98827.95;108765;1251;1003113;-74
2023/12/05 01:31:05;;;;;;;65.30;41.30;;;;;;;-4.55;100.00;98824.30;108549;1251;1002976;-74
2023/12/05 01:33:32;;;;;;;65.20;40.50;;;;;;;-4.54;100.00;98820.84;109596;1251;67193;-72
2023/12/05 01:35:58;;;;;;;65.90;44.70;;;;;;;-4.54;100.00;98821.86;108830;1250;1002739;-73
2023/12/05 01:38:25;;;;;;;64.90;41.90;;;;;;;-4.54;100.00;98819.80;109528;1250;65038;-74
2023/12/05 01:40:52;;;;;;;66.50;40.60;;;;;;;-4.56;100.00;98815.45;109509;1251;58947;-74
2023/12/05 01:43:19;;;;;;;64.00;40.00;;;;;;;-4.56;100.00;98813.56;109255;1251;59481;-74
2023/12/05 01:45:45;;;;;;;68.90;40.00;;;;;;;-4.56;100.00;98810.10;109536;1251;65973;-73
2023/12/05 01:48:12;;;;;;;63.50;37.20;;;;;;;-4.57;100.00;98811.84;109554;1251;60889;-73
2023/12/05 01:50:38;;;;;;;64.10;40.50;;;;;;;-4.59;100.00;98809.77;109560;1251;64790;-73
2023/12/05 01:53:05;;;;;;;65.90;40.80;;;;;;;-4.62;100.00;98805.46;109376;1251;59016;-73
2023/12/05 01:55:32;;;;;;;69.20;41.70;;;;;;;-4.63;100.00;98805.13;109514;1251;59025;-74
2023/12/05 01:57:59;;;;;;;65.80;41.00;;;;;;;-4.63;100.00;98799.59;109559;1251;67027;-74
2023/12/05 02:00:27;;;;;;;64.30;39.50;;;;;;;-4.63;100.00;98792.83;109587;1250;60964;-74
2023/12/05 02:02:55;;;;;;;61.80;38.30;;;;;;;-4.64;100.00;98787.98;109575;1251;64270;-70
2023/12/05 02:05:22;;;;;;;58.00;38.60;;;;;;;-4.65;100.00;98787.64;109478;1251;59020;-73
2023/12/05 02:07:49;;;;;;;63.50;39.20;;;;;;;-4.65;100.00;98788.52;109538;1251;59082;-73
2023/12/05 02:10:16;;;;;;;63.50;38.30;;;;;;;-4.66;100.00;98780.55;109533;1251;67236;-73
2023/12/05 02:12:43;;;;;;;63.90;38.10;;;;;;;-4.67;100.00;98777.79;109585;1251;61016;-73
2023/12/05 02:15:10;;;;;;;65.80;40.80;;;;;;;-4.70;100.00;98771.41;109564;1251;65462;-73
2023/12/05 02:17:39;;;;;;;66.30;39.30;;;;;;;-4.72;100.00;98765.00;108756;1251;1002327;-73
2023/12/05 02:20:21;;;;;;;70.10;42.40;;;;;;;-4.73;100.00;98756.19;109572;1251;58906;-73
2023/12/05 02:23:16;;;;;;;61.20;36.70;;;;;;;-4.77;100.00;98756.39;109607;1251;67060;-73
2023/12/05 02:25:53;;;;;;;65.10;41.30;;;;;;;-4.82;100.00;98757.30;109572;1250;61044;-73
2023/12/05 02:28:21;;;;;;;64.80;38.90;;;;;;;-4.86;100.00;98759.92;109271;1251;65021;-74
2023/12/05 02:30:47;;;;;;;64.00;38.80;;;;;;;-4.91;100.00;98759.10;109552;1251;59017;-74
2023/12/05 02:33:14;;;;;;;61.50;39.20;;;;;;;-4.94;100.00;98754.45;109546;1251;59029;-73
2023/12/05 02:35:41;;;;;;;62.60;39.50;;;;;;;-4.95;100.00;98755.33;109239;1251;66534;-73
2023/12/05 02:38:18;;;;;;;66.70;41.60;;;;;;;-4.95;100.00;98755.17;109530;1251;60048;-73
2023/12/05 02:41:04;;;;;;;64.40;40.70;;;;;;;-4.95;100.00;98751.87;109532;1251;63966;-74
2023/12/05 02:43:36;;;;;;;65.10;40.50;;;;;;;-4.94;100.00;98745.79;109478;1251;58962;-73
2023/12/05 02:46:07;;;;;;;54.90;33.90;;;;;;;-4.92;100.00;98743.01;109557;1251;59012;-73
2023/12/05 02:48:35;;;;;;;66.60;38.30;;;;;;;-4.89;100.00;98743.16;109527;1250;65985;-73
2023/12/05 02:51:03;;;;;;;62.90;39.30;;;;;;;-4.87;100.00;98741.92;109559;1251;60031;-74
2023/12/05 02:53:29;;;;;;;63.20;39.60;;;;;;;-4.84;100.00;98740.52;109499;1251;63980;-74
2023/12/05 02:55:56;;;;;;;60.70;36.80;;;;;;;-4.81;100.00;98741.17;108750;1251;1002681;-74
2023/12/05 02:58:22;;;;;;;62.10;38.90;;;;;;;-4.80;100.00;98736.83;108819;1251;1002228;-74
2023/12/05 03:00:49;;;;;;;65.20;41.50;;;;;;;-4.78;100.00;98726.76;109511;1251;59037;-74
2023/12/05 03:03:15;;;;;;;64.60;39.50;;;;;;;-4.77;100.00;98718.78;109528;1251;58972;-73
2023/12/05 03:05:42;;;;;;;63.20;38.50;;;;;;;-4.77;100.00;98720.52;109216;1251;64920;-74
2023/12/05 03:08:09;;;;;;;67.10;40.50;;;;;;;-4.77;100.00;98718.09;109555;1251;58979;-73
2023/12/05 03:10:35;;;;;;;61.80;37.40;;;;;;;-4.77;100.00;98721.20;109512;1251;61691;-73
2023/12/05 03:13:02;;;;;;;67.10;39.30;;;;;;;-4.77;100.00;98721.71;109546;1251;67071;-73
2023/12/05 03:15:29;;;;;;;65.10;40.40;;;;;;;-4.77;100.00;98724.32;109568;1251;59988;-73
2023/12/05 03:17:55;;;;;;;69.70;41.40;;;;;;;-4.76;100.00;98723.64;109554;1251;65508;-74
2023/12/05 03:20:22;;;;;;;61.90;39.70;;;;;;;-4.75;100.00;98723.79;109553;1251;59138;-74
2023/12/05 03:22:48;;;;;;;62.90;38.50;;;;;;;-4.74;100.00;98727.95;109575;1251;59012;-73
2023/12/05 03:25:15;;;;;;;62.00;38.20;;;;;;;-4.73;100.00;98722.39;109507;1252;65933;-74
2023/12/05 03:27:42;;;;;;;63.60;39.40;;;;;;;-4.73;100.00;98719.77;109575;1251;59870;-75
2023/12/05 03:30:09;;;;;;;61.30;37.20;;;;;;;-4.74;100.00;98715.98;109556;1251;65281;-74
2023/12/05 03:32:36;;;;;;;73.10;41.00;;;;;;;-4.76;100.00;98712.52;109545;1251;59016;-74
2023/12/05 03:35:03;;;;;;;59.80;37.70;;;;;;;-4.77;100.00;98716.17;109548;1251;59330;-74
2023/12/05 03:37:30;;;;;;;65.40;37.70;;;;;;;-4.77;100.00;98716.52;109544;1251;67306;-74
2023/12/05 03:39:56;;;;;;;59.30;38.00;;;;;;;-4.76;100.00;98715.83;109558;1251;61064;-73
2023/12/05 03:42:23;;;;;;;61.20;39.00;;;;;;;-4.77;100.00;98718.95;108755;1251;1002936;-74
2023/12/05 03:44:50;;;;;;;63.40;38.60;;;;;;;-4.76;100.00;98715.14;109541;1251;59082;-74
2023/12/05 03:47:16;;;;;;;61.20;37.70;;;;;;;-4.75;100.00;98718.77;108791;1251;1002453;-73
2023/12/05 03:49:43;;;;;;;64.40;39.50;;;;;;;-4.75;100.00;98727.77;108785;1251;1002125;-73
2023/12/05 03:52:09;;;;;;;57.20;35.30;;;;;;;-4.75;100.00;98729.84;109594;1251;61075;-73
2023/12/05 03:54:36;;;;;;;60.60;37.70;;;;;;;-4.74;100.00;98724.46;108766;1251;1003013;-73
2023/12/05 03:57:03;;;;;;;63.60;39.10;;;;;;;-4.74;100.00;98725.69;109407;1251;186857;-73
2023/12/05 03:59:30;;;;;;;57.70;36.00;;;;;;;-4.73;100.00;98723.59;109514;1251;58992;-73
2023/12/05 04:01:57;;;;;;;64.20;40.50;;;;;;;-4.71;100.00;98720.80;109595;1251;67179;-75
2023/12/05 04:04:23;;;;;;;66.10;40.80;;;;;;;-4.70;100.00;98725.29;109547;1251;69962;-74
2023/12/05 04:06:51;;;;;;;65.70;40.00;;;;;;;-4.68;100.00;98724.23;109551;1251;65061;-74
2023/12/05 04:09:17;;;;;;;62.20;37.00;;;;;;;-4.66;100.00;98721.09;109536;1251;59108;-74
2023/12/05 04:11:44;;;;;;;56.90;36.70;;;;;;;-4.64;100.00;98719.34;109533;1251;59195;-73
2023/12/05 04:14:10;;;;;;;64.10;37.80;;;;;;;-4.62;100.00;98718.27;109555;1251;67034;-74
2023/12/05 04:16:38;;;;;;;53.50;37.20;;;;;;;-4.59;100.00;98716.69;109612;1251;61071;-74
2023/12/05 04:19:04;;;;;;;59.70;36.90;;;;;;;-4.58;100.00;98714.25;108802;1251;1002484;-73
2023/12/05 04:21:31;;;;;;;60.20;37.20;;;;;;;-4.57;100.00;98711.65;109534;1251;58987;-74
2023/12/05 04:23:57;;;;;;;58.20;36.20;;;;;;;-4.57;100.00;98711.30;109586;1251;59124;-73
2023/12/05 04:26:24;;;;;;;59.00;39.40;;;;;;;-4.57;100.00;98715.45;108784;1251;1002921;-73
2023/12/05 04:28:51;;;;;;;64.60;37.60;;;;;;;-4.57;100.00;98707.67;109523;1255;58922;-73
2023/12/05 04:31:17;;;;;;;60.40;38.20;;;;;;;-4.57;100.00;98706.96;109545;1251;59062;-73
2023/12/05 04:33:44;;;;;;;58.30;37.00;;;;;;;-4.56;100.00;98709.04;109564;1251;59154;-72
2023/12/05 04:36:11;;;;;;;67.80;39.80;;;;;;;-4.57;100.00;98709.04;109559;1251;59028;-73
2023/12/05 04:38:38;;;;;;;61.70;39.80;;;;;;;-4.56;100.00;98711.45;109539;1251;67058;-75
2023/12/05 04:41:05;;;;;;;60.20;37.90;;;;;;;-4.54;100.00;98711.95;109568;1251;60048;-73
2023/12/05 04:43:31;;;;;;;63.10;39.30;;;;;;;-4.53;100.00;98713.33;109376;1251;73620;-73
2023/12/05 04:45:58;;;;;;;56.40;34.00;;;;;;;-4.54;100.00;98710.40;109524;1251;59021;-73
2023/12/05 04:48:25;;;;;;;56.50;36.20;;;;;;;-4.53;100.00;98712.46;109528;1251;61533;-73
2023/12/05 04:50:51;;;;;;;62.20;38.40;;;;;;;-4.54;100.00;98714.20;109521;1251;66033;-75
2023/12/05 04:53:18;;;;;;;53.10;36.80;;;;;;;-4.53;100.00;98712.64;109567;1251;59938;-73
2023/12/05 04:55:44;;;;;;;59.40;37.40;;;;;;;-4.52;100.00;98710.71;109534;1251;64075;-73
2023/12/05 04:58:11;;;;;;;61.50;36.80;;;;;;;-4.50;100.00;98712.61;109540;1251;58976;-74
2023/12/05 05:00:38;;;;;;;60.80;36.70;;;;;;;-4.48;100.00;98709.47;109543;1251;59801;-74
2023/12/05 05:03:04;;;;;;;59.20;35.30;;;;;;;-4.48;100.00;98702.17;109549;1253;67025;-73
2023/12/05 05:05:31;;;;;;;60.80;36.80;;;;;;;-4.48;100.00;98703.05;109567;1251;59726;-73
2023/12/05 05:07:58;;;;;;;57.60;38.20;;;;;;;-4.48;100.00;98706.52;109252;1251;62852;-73
2023/12/05 05:10:25;;;;;;;55.70;35.60;;;;;;;-4.50;100.00;98703.59;109485;1251;60741;-74
2023/12/05 05:12:51;;;;;;;64.90;40.30;;;;;;;-4.50;100.00;98708.61;108754;1251;1002848;-74
2023/12/05 05:15:18;;;;;;;63.00;38.90;;;;;;;-4.49;100.00;98706.52;108798;1251;1002860;-73
2023/12/05 05:17:44;;;;;;;63.00;39.10;;;;;;;-4.49;100.00;98702.89;108844;1251;1003218;-74
2023/12/05 05:20:11;;;;;;;64.70;40.50;;;;;;;-4.51;100.00;98702.90;109522;1251;59058;-73
2023/12/05 05:22:37;;;;;;;61.60;38.30;;;;;;;-4.53;100.00;98706.23;109554;1251;58955;-74
2023/12/05 05:25:05;;;;;;;57.80;36.60;;;;;;;-4.53;100.00;98706.40;109541;1251;58965;-74
2023/12/05 05:27:31;;;;;;;62.50;38.40;;;;;;;-4.55;100.00;98704.16;109540;1256;67023;-74
2023/12/05 05:29:58;;;;;;;60.80;37.70;;;;;;;-4.55;100.00;98706.94;109557;1251;61117;-73
2023/12/05 05:32:24;;;;;;;66.20;39.60;;;;;;;-4.56;100.00;98701.41;108746;1251;1002295;-73
2023/12/05 05:34:51;;;;;;;61.00;39.50;;;;;;;-4.55;100.00;98705.56;108771;1251;1002240;-74
2023/12/05 05:37:18;;;;;;;62.50;37.80;;;;;;;-4.54;100.00;98707.27;109544;1251;59080;-73
2023/12/05 05:39:47;;;;;;;65.00;38.50;;;;;;;-4.52;100.00;98708.48;109298;1251;66492;-72
2023/12/05 05:42:14;;;;;;;63.40;39.20;;;;;;;-4.52;100.00;98707.95;109522;1251;59486;-73
2023/12/05 05:44:41;;;;;;;58.20;36.20;;;;;;;-4.50;100.00;98712.25;109572;1251;65016;-73
2023/12/05 05:47:07;;;;;;;58.10;39.40;;;;;;;-4.49;100.00;98706.52;109503;1256;59149;-73
2023/12/05 05:49:34;;;;;;;59.10;37.90;;;;;;;-4.49;100.00;98703.05;109409;1251;59234;-74
2023/12/05 05:52:01;;;;;;;60.90;38.60;;;;;;;-4.47;100.00;98703.23;109558;1251;67163;-74
2023/12/05 05:54:27;;;;;;;65.70;41.00;;;;;;;-4.47;100.00;98703.04;109567;1251;61175;-74
2023/12/05 05:56:54;;;;;;;65.10;40.50;;;;;;;-4.47;100.00;98704.27;109485;1251;65146;-74
2023/12/05 05:59:21;;;;;;;60.40;40.20;;;;;;;-4.47;100.00;98698.88;109531;1251;58959;-74
2023/12/05 06:01:47;;;;;;;61.90;36.60;;;;;;;-4.47;100.00;98699.73;109519;1251;58998;-74
2023/12/05 06:04:14;;;;;;;64.90;41.50;;;;;;;-4.48;100.00;98700.97;109557;1251;66987;-74
2023/12/05 06:06:41;;;;;;;70.70;42.80;;;;;;;-4.47;100.00;98703.73;109248;1251;59467;-73
2023/12/05 06:09:07;;;;;;;68.20;42.60;;;;;;;-4.48;100.00;98705.64;109517;1251;63964;-74
2023/12/05 06:11:34;;;;;;;68.10;42.90;;;;;;;-4.47;100.00;98706.67;109553;1251;58954;-73
2023/12/05 06:14:00;;;;;;;66.90;40.90;;;;;;;-4.45;100.00;98709.08;109575;1251;59096;-73
2023/12/05 06:16:27;;;;;;;60.50;40.20;;;;;;;-4.44;100.00;98708.55;109511;1251;67189;-73
2023/12/05 06:18:54;;;;;;;59.60;36.40;;;;;;;-4.44;100.00;98703.86;109547;1251;60358;-73
2023/12/05 06:21:21;;;;;;;53.90;34.80;;;;;;;-4.43;100.00;98707.67;108808;1251;1002937;-72
2023/12/05 06:23:47;;;;;;;59.60;36.30;;;;;;;-4.40;100.00;98710.59;109513;1251;59019;-73
2023/12/05 06:26:14;;;;;;;54.70;35.00;;;;;;;-4.38;100.00;98711.25;108748;1251;1002112;-73
2023/12/05 06:28:41;;;;;;;56.10;34.30;;;;;;;-4.34;100.00;98706.70;109538;1251;59087;-73
2023/12/05 06:31:08;;;;;;;57.10;36.00;;;;;;;-4.31;100.00;98713.61;108802;1251;1002875;-73
2023/12/05 06:33:34;;;;;;;62.30;39.20;;;;;;;-4.30;100.00;98714.11;109533;1252;63998;-75
2023/12/05 06:36:01;;;;;;;60.80;41.20;;;;;;;-4.28;100.00;98717.04;109527;1251;59258;-73
2023/12/05 06:38:27;;;;;;;59.40;35.60;;;;;;;-4.25;100.00;98713.36;109597;1251;58949;-73
2023/12/05 06:40:55;;;;;;;58.10;36.30;;;;;;;-4.24;100.00;98705.36;109547;1250;67030;-74
2023/12/05 06:43:21;;;;;;;59.90;36.80;;;;;;;-4.23;100.00;98705.02;108785;1251;1002327;-73
2023/12/05 06:45:48;;;;;;;57.00;35.60;;;;;;;-4.21;100.00;98710.36;109526;1251;74332;-73
2023/12/05 06:48:15;;;;;;;61.60;36.30;;;;;;;-4.18;100.00;98711.20;109500;1254;58990;-73
2023/12/05 06:50:45;;;;;;;57.10;36.20;;;;;;;-4.14;100.00;98714.10;109527;1251;59082;-73
2023/12/05 06:53:12;;;;;;;56.30;35.90;;;;;;;-4.12;100.00;98716.16;109358;1251;64444;-74
2023/12/05 06:55:39;;;;;;;53.70;35.30;;;;;;;-4.10;100.00;98717.17;109531;1251;61109;-74
2023/12/05 06:58:06;;;;;;;60.00;39.30;;;;;;;-4.06;100.00;98712.78;109529;1251;64994;-74
2023/12/05 07:00:32;;;;;;;81.10;46.60;;;;;;;-4.02;100.00;98714.98;109518;1251;58928;-74
2023/12/05 07:02:59;;;;;;;75.00;49.40;;;;;;;-3.97;100.00;98717.35;109595;1251;59985;-73
2023/12/05 07:05:25;;;;;;;70.80;47.50;;;;;;;-3.91;100.00;98717.10;109556;1251;65694;-75
2023/12/05 07:07:52;;;;;;;66.40;42.30;;;;;;;-3.86;100.00;98719.30;109549;1251;61159;-74
2023/12/05 07:10:19;;;;;;;61.70;41.20;;;;;;;-3.81;100.00;98723.05;109555;1251;65304;-74
2023/12/05 07:12:45;;;;;;;63.20;40.30;;;;;;;-3.77;100.00;98717.77;109476;1251;59260;-74
2023/12/05 07:15:12;;;;;;;63.70;38.50;;;;;;;-3.72;100.00;98721.34;109528;1251;59024;-74
2023/12/05 07:17:38;;;;;;;69.20;40.90;;;;;;;-3.68;100.00;98720.77;109542;1255;67020;-74
2023/12/05 07:20:06;;;;;;;67.70;41.40;;;;;;;-3.66;100.00;98719.54;109548;1251;61481;-74
2023/12/05 07:22:33;;;;;;;67.30;41.00;;;;;;;-3.62;100.00;98720.86;109587;1251;65314;-75
2023/12/05 07:25:00;;;;;;;66.10;42.70;;;;;;;-3.57;100.00;98718.35;108747;1251;1002632;-74
2023/12/05 07:27:26;;;;;;;70.80;42.00;;;;;;;-3.51;100.00;98715.84;109529;1251;59253;-73
2023/12/05 07:29:53;;;;;;;71.90;44.90;;;;;;;-3.44;100.00;98719.38;108820;1250;1002263;-74
2023/12/05 07:32:19;;;;;;;67.60;43.60;;;;;;;-3.35;100.00;98719.07;108754;1255;1015710;-74
2023/12/05 07:34:49;;;;;;;69.70;41.90;;;;;;;-3.26;100.00;98717.54;109531;1251;65154;-74
2023/12/05 07:37:15;;;;;;;74.30;45.30;;;;;;;-3.18;100.00;98718.46;109535;1251;59451;-73
2023/12/05 07:39:42;;;;;;;62.50;42.30;;;;;;;-3.13;100.00;98713.16;109607;1251;59472;-74
2023/12/05 07:42:09;;;;;;;73.00;45.50;;;;;;;-3.08;100.00;98712.05;109534;1251;67012;-73
2023/12/05 07:44:35;;;;;;;76.00;53.90;;;;;;;-3.03;100.00;98710.39;109530;1251;61020;-73
2023/12/05 07:47:03;;;;;;;71.00;47.40;;;;;;;-2.97;100.00;98710.81;109537;1251;65274;-74
2023/12/05 07:49:29;;;;;;;65.70;42.00;;;;;;;-2.89;100.00;98710.50;108780;1251;1003126;-73
2023/12/05 07:51:56;;;;;;;67.60;43.40;;;;;;;-2.82;100.00;98706.02;109605;1251;59024;-74
2023/12/05 07:54:22;;;;;;;69.60;45.10;;;;;;;-2.76;100.00;98708.52;109602;1251;66006;-75
2023/12/05 07:56:49;;;;;;;66.60;44.90;;;;;;;-2.69;100.00;98701.97;109536;1251;60124;-74
2023/12/05 07:59:16;;;;;;;71.50;46.00;;;;;;;-2.64;100.00;98702.04;109593;1251;65393;-73
2023/12/05 08:01:44;;;;;;;70.60;47.00;;;;;;;-2.57;100.00;98704.00;109588;1251;59964;-74
2023/12/05 08:04:11;;;;;;;68.50;46.80;;;;;;;-2.47;100.00;98702.08;109580;1251;59019;-75
2023/12/05 08:06:38;;;;;;;73.00;47.50;;;;;;;-2.37;100.00;98705.19;109540;1251;67081;-73
2023/12/05 08:09:04;;;;;;;69.10;48.20;;;;;;;-2.27;100.00;98695.95;109567;1251;59873;-75
2023/12/05 08:11:31;;;;;;;73.70;48.90;;;;;;;-2.15;100.00;98699.19;109573;1251;63966;-74
2023/12/05 08:13:57;;;;;;;72.20;49.60;;;;;;;-2.10;100.00;98696.30;109501;1251;58958;-75
2023/12/05 08:16:24;;;;;;;78.40;52.40;;;;;;;-2.04;100.00;98691.98;109256;1251;58985;-75
2023/12/05 08:18:51;;;;;;;75.90;50.00;;;;;;;-1.96;100.00;98694.25;109559;1251;67123;-73
2023/12/05 08:21:17;;;;;;;71.10;47.00;;;;;;;-1.87;100.00;98697.02;109534;1251;60341;-74
2023/12/05 08:23:44;;;;;;;73.80;49.50;;;;;;;-1.83;100.00;98693.80;109524;1251;64306;-74
2023/12/05 08:26:11;;;;;;;67.60;48.20;;;;;;;-1.78;100.00;98698.05;109562;1251;58941;-74
2023/12/05 08:28:38;;;;;;;79.30;54.80;;;;;;;-1.70;100.00;98696.13;109592;1251;58883;-74
2023/12/05 08:31:06;;;;;;;75.50;51.60;;;;;;;-1.62;100.00;98700.30;109561;1251;66025;-74
2023/12/05 08:33:32;;;;;;;74.80;51.30;;;;;;;-1.51;100.00;98701.80;109373;1251;60978;-75
2023/12/05 08:35:59;;;;;;;73.30;52.30;;;;;;;-1.40;100.00;98704.15;109509;1251;65069;-74
2023/12/05 08:38:26;;;;;;;79.00;51.30;;;;;;;-1.29;100.00;98706.16;109481;1251;59062;-75
2023/12/05 08:40:52;;;;;;;73.70;51.00;;;;;;;-1.19;100.00;98708.89;109522;1251;59021;-75
2023/12/05 08:43:19;;;;;;;70.80;51.00;;;;;;;-1.10;100.00;98709.00;108786;1251;1002644;-76
2023/12/05 08:45:46;;;;;;;77.30;51.90;;;;;;;-0.97;100.00;98707.65;109550;1251;60809;-75
2023/12/05 08:48:13;;;;;;;74.50;50.80;;;;;;;-0.83;100.00;98712.17;109526;1251;72694;-73
2023/12/05 08:50:41;;;;;;;75.60;51.80;;;;;;;-0.72;100.00;98706.67;109551;1251;58957;-73
2023/12/05 08:53:08;;;;;;;71.80;51.00;;;;;;;-0.61;100.00;98710.21;109542;1251;59041;-73
2023/12/05 08:55:35;;;;;;;70.30;48.80;;;;;;;-0.51;100.00;98710.14;109555;1251;66087;-74
2023/12/05 08:58:02;;;;;;;72.70;50.60;;;;;;;-0.50;100.00;98710.97;109609;1251;60149;-74
2023/12/05 09:00:28;;;;;;;70.50;50.00;;;;;;;-0.51;100.00;98706.30;109550;1251;64051;-73
2023/12/05 09:02:55;;;;;;;75.50;49.50;;;;;;;-0.52;100.00;98702.10;109355;1251;59284;-73
2023/12/05 09:05:23;;;;;;;69.80;48.60;;;;;;;-0.53;100.00;98700.23;109557;1251;59000;-73
2023/12/05 09:07:50;;;;;;;74.90;48.00;;;;;;;-0.55;100.00;98699.75;109553;1251;66997;-73
2023/12/05 09:10:16;;;;;;;69.70;48.80;;;;;;;-0.57;100.00;98703.14;109529;1251;61027;-73
2023/12/05 09:12:43;;;;;;;68.90;48.00;;;;;;;-0.62;100.00;98704.31;109561;1251;65346;-73
2023/12/05 09:15:09;;;;;;;66.20;45.10;;;;;;;-0.63;100.00;98704.88;109534;1251;59072;-73
2023/12/05 09:17:36;;;;;;;68.30;45.20;;;;;;;-0.62;100.00;98707.13;109549;1251;59000;-73
2023/12/05 09:20:04;;;;;;;67.20;44.90;;;;;;;-0.67;100.00;98705.13;109555;1251;67008;-73
2023/12/05 09:22:36;;;;;;;65.30;45.90;;;;;;;-0.68;100.00;98705.50;109541;1251;70025;-77
2023/12/05 09:25:03;;;;;;;68.80;47.80;;;;;;;-0.68;100.00;98700.45;109529;1251;64129;-73
2023/12/05 09:27:30;;;;;;;74.60;49.40;;;;;;;-0.68;100.00;98695.20;109525;1251;58991;-73
2023/12/05 09:29:56;;;;;;;68.50;47.50;;;;;;;-0.62;100.00;98692.97;109543;1251;59015;-73
2023/12/05 09:32:23;;;;;;;72.30;50.30;;;;;;;-0.56;100.00;98692.98;109568;1251;65918;-73
2023/12/05 09:34:50;;;;;;;74.60;50.30;;;;;;;-0.53;100.00;98699.02;109493;1250;60068;-73
2023/12/05 09:37:16;;;;;;;75.70;50.50;;;;;;;-0.53;100.00;98701.45;109520;1251;65035;-74
2023/12/05 09:39:43;;;;;;;70.90;48.60;;;;;;;-0.51;100.00;98694.77;109545;1251;58959;-73
2023/12/05 09:42:13;;;;;;;72.90;49.80;;;;;;;-0.50;100.00;98689.86;109553;1251;59148;-73
2023/12/05 09:44:42;;;;;;;;;;;;;;;-0.45;100.00;98689.02;109592;1251;67310;-73
2023/12/05 09:47:09;;;;;;;65.50;45.40;;;;;;;-0.37;100.00;98693.36;109239;1251;59106;-72
2023/12/05 09:49:38;;;;;;;65.10;44.20;;;;;;;-0.36;100.00;98691.05;109484;1251;73246;-75
2023/12/05 09:52:06;;;;;;;61.10;42.20;;;;;;;-0.43;100.00;98695.77;109529;1251;58982;-83
2023/12/05 09:54:33;;;;;;;61.40;44.40;;;;;;;-0.47;100.00;98691.00;109601;1251;59168;-77
2023/12/05 09:57:01;;;;;;;68.70;44.50;;;;;;;-0.53;100.00;98688.19;109496;1251;67381;-78
2023/12/05 09:59:28;;;;;;;66.90;45.40;;;;;;;-0.60;100.00;98686.30;109562;1251;61238;-74
2023/12/05 10:02:00;;;;;;;77.20;48.90;;;;;;;-0.67;100.00;98690.14;109597;1251;65010;-73
2023/12/05 10:04:27;;;;;;;77.70;52.60;;;;;;;-0.73;100.00;98693.08;109591;1251;59045;-73
2023/12/05 10:06:57;;;;;;;88.20;58.90;;;;;;;-0.80;100.00;98690.99;108829;1251;1002460;-73
2023/12/05 10:09:27;;;;;;;71.90;52.80;;;;;;;-0.79;100.00;98688.36;109556;1251;65735;-73
2023/12/05 10:11:55;;;;;;;70.00;48.20;;;;;;;-0.68;100.00;98684.40;109558;1251;61325;-74
2023/12/05 10:14:22;;;;;;;65.10;44.80;;;;;;;-0.56;100.00;98678.84;109518;1251;65051;-73
2023/12/05 10:16:50;;;;;;;63.00;44.90;;;;;;;-0.45;100.00;98672.80;109577;1251;59020;-73
2023/12/05 10:19:18;;;;;;;64.00;47.50;;;;;;;-0.33;100.00;98668.44;109550;1251;58969;-73
2023/12/05 10:21:44;;;;;;;67.00;46.00;;;;;;;-0.20;100.00;98668.44;109563;1251;67069;-73
2023/12/05 10:24:11;;;;;;;56.40;40.60;;;;;;;-0.08;100.00;98663.71;109609;1251;60158;-73
2023/12/05 10:26:44;;;;;;;58.70;43.80;;;;;;;-0.01;100.00;98660.89;109548;1251;64044;-74
2023/12/05 10:29:11;;;;;;;63.40;42.60;;;;;;;0.15;100.00;98661.82;109523;1251;58980;-73
2023/12/05 10:31:37;;;;;;;54.80;38.70;;;;;;;0.34;100.00;98659.84;109558;1251;58941;-75
2023/12/05 10:34:05;;;;;;;56.00;39.20;;;;;;;0.52;100.00;98651.73;109568;1250;65963;-74
2023/12/05 10:36:32;;;;;;;50.60;35.40;;;;;;;0.65;100.00;98648.19;109570;1251;60208;-75
2023/12/05 10:38:59;;;;;;;57.50;40.50;;;;;;;0.70;100.00;98649.24;109558;1251;65368;-74
2023/12/05 10:41:28;;;;;;;51.40;36.50;;;;;;;0.73;100.00;98649.67;109565;1251;59055;-74
2023/12/05 10:43:55;;;;;;;52.00;38.70;;;;;;;0.71;100.00;98646.80;109481;1251;58995;-73
2023/12/05 10:46:28;;;;;;;48.40;35.30;;;;;;;0.61;100.00;98645.67;109569;1251;67114;-74
2023/12/05 10:48:55;;;;;;;52.30;37.40;;;;;;;0.73;100.00;98640.76;109524;1251;60009;-74
2023/12/05 10:51:26;;;;;;;53.80;38.00;;;;;;;0.88;100.00;98637.96;109555;1251;64040;-75
2023/12/05 10:53:55;;;;;;;52.90;36.50;;;;;;;0.93;100.00;98639.94;109530;1251;59090;-76
2023/12/05 10:56:23;;;;;;;50.40;37.60;;;;;;;0.91;100.00;98639.98;109566;1251;59091;-76
2023/12/05 10:58:52;;;;;;;52.80;37.60;;;;;;;0.94;100.00;98637.09;109561;1251;67205;-75